sensor_id;sensor_type;location;lat;lon;timestamp;temperature;humidity
8715;DHT22;4394;51.208;8.904;2023-08-06T00:01:56;15.90;99.90
8715;DHT22;4394;51.208;8.904;2023-08-06T00:04:44;15.80;99.90
8715;DHT22;4394;51.208;8.904;2023-08-06T00:07:32;15.80;99.90
8715;DHT22;4394;51.208;8.904;2023-08-06T00:10:20;15.80;99.90
8715;DHT22;4394;51.208;8.904;2023-08-06T00:13:08;15.90;99.90
8715;DHT22;4394;51.208;8.904;2023-08-06T00:16:08;15.90;99.90
8715;DHT22;4394;51.208;8.904;2023-08-06T00:18:58;15.90;99.90
8715;DHT22;4394;51.208;8.904;2023-08-06T00:21:46;15.90;99.90
8715;DHT22;4394;51.208;8.904;2023-08-06T00:24:34;15.80;99.90
8715;DHT22;4394;51.208;8.904;2023-08-06T00:27:22;16.00;99.90
8715;DHT22;4394;51.208;8.904;2023-08-06T00:30:11;15.90;99.90
8715;DHT22;4394;51.208;8.904;2023-08-06T00:32:59;15.90;99.90
8715;DHT22;4394;51.208;8.904;2023-08-06T00:35:48;15.90;99.90
8715;DHT22;4394;51.208;8.904;2023-08-06T00:38:36;15.90;99.90
8715;DHT22;4394;51.208;8.904;2023-08-06T00:41:24;16.50;99.90
8715;DHT22;4394;51.208;8.904;2023-08-06T00:44:12;16.20;99.90
8715;DHT22;4394;51.208;8.904;2023-08-06T00:47:01;16.10;99.90
8715;DHT22;4394;51.208;8.904;2023-08-06T00:49:49;16.00;99.90
8715;DHT22;4394;51.208;8.904;2023-08-06T00:52:39;15.90;99.90
8715;DHT22;4394;51.208;8.904;2023-08-06T00:55:28;15.90;99.90
8715;DHT22;4394;51.208;8.904;2023-08-06T00:58:16;15.80;99.90
8715;DHT22;4394;51.208;8.904;2023-08-06T01:01:05;15.80;99.90
8715;DHT22;4394;51.208;8.904;2023-08-06T01:03:53;15.80;99.90
8715;DHT22;4394;51.208;8.904;2023-08-06T01:06:45;15.80;99.90
8715;DHT22;4394;51.208;8.904;2023-08-06T01:09:43;15.80;99.90
8715;DHT22;4394;51.208;8.904;2023-08-06T01:12:41;15.80;99.90
8715;DHT22;4394;51.208;8.904;2023-08-06T01:15:37;15.70;99.90
8715;DHT22;4394;51.208;8.904;2023-08-06T01:18:27;15.70;99.90
8715;DHT22;4394;51.208;8.904;2023-08-06T01:21:18;15.70;99.90
8715;DHT22;4394;51.208;8.904;2023-08-06T01:24:07;15.70;99.90
8715;DHT22;4394;51.208;8.904;2023-08-06T01:26:59;15.70;99.90
8715;DHT22;4394;51.208;8.904;2023-08-06T01:29:58;15.70;99.90
8715;DHT22;4394;51.208;8.904;2023-08-06T01:32:54;15.60;99.90
8715;DHT22;4394;51.208;8.904;2023-08-06T01:35:46;15.50;99.90
8715;DHT22;4394;51.208;8.904;2023-08-06T01:38:37;15.60;99.90
8715;DHT22;4394;51.208;8.904;2023-08-06T01:41:25;15.50;99.90
8715;DHT22;4394;51.208;8.904;2023-08-06T01:44:13;15.50;99.90
8715;DHT22;4394;51.208;8.904;2023-08-06T01:47:02;15.40;99.90
8715;DHT22;4394;51.208;8.904;2023-08-06T01:49:50;15.40;99.90
8715;DHT22;4394;51.208;8.904;2023-08-06T01:52:38;15.40;99.90
8715;DHT22;4394;51.208;8.904;2023-08-06T01:55:29;15.30;99.90
8715;DHT22;4394;51.208;8.904;2023-08-06T01:58:17;15.30;99.90
8715;DHT22;4394;51.208;8.904;2023-08-06T02:01:05;15.30;99.90
8715;DHT22;4394;51.208;8.904;2023-08-06T02:03:53;15.30;99.90
8715;DHT22;4394;51.208;8.904;2023-08-06T02:06:41;15.30;99.90
8715;DHT22;4394;51.208;8.904;2023-08-06T02:09:29;15.30;99.90
8715;DHT22;4394;51.208;8.904;2023-08-06T02:12:18;15.30;99.90
8715;DHT22;4394;51.208;8.904;2023-08-06T02:15:07;15.30;99.90
8715;DHT22;4394;51.208;8.904;2023-08-06T02:17:55;15.40;99.90
8715;DHT22;4394;51.208;8.904;2023-08-06T02:20:43;15.40;99.90
8715;DHT22;4394;51.208;8.904;2023-08-06T02:23:32;15.30;99.90
8715;DHT22;4394;51.208;8.904;2023-08-06T02:26:20;15.30;99.90
8715;DHT22;4394;51.208;8.904;2023-08-06T02:29:09;15.30;99.90
8715;DHT22;4394;51.208;8.904;2023-08-06T02:31:57;15.30;99.90
8715;DHT22;4394;51.208;8.904;2023-08-06T02:34:47;15.30;99.90
8715;DHT22;4394;51.208;8.904;2023-08-06T02:37:36;15.40;99.90
8715;DHT22;4394;51.208;8.904;2023-08-06T02:40:24;15.30;99.90
8715;DHT22;4394;51.208;8.904;2023-08-06T02:43:12;15.40;99.90
8715;DHT22;4394;51.208;8.904;2023-08-06T02:46:02;15.50;99.90
8715;DHT22;4394;51.208;8.904;2023-08-06T02:48:50;15.90;99.90
8715;DHT22;4394;51.208;8.904;2023-08-06T02:51:38;15.70;99.90
8715;DHT22;4394;51.208;8.904;2023-08-06T02:54:26;15.60;99.90
8715;DHT22;4394;51.208;8.904;2023-08-06T02:57:14;15.60;99.90
8715;DHT22;4394;51.208;8.904;2023-08-06T03:00:03;15.70;99.90
8715;DHT22;4394;51.208;8.904;2023-08-06T03:02:53;15.70;99.90
8715;DHT22;4394;51.208;8.904;2023-08-06T03:05:41;15.60;99.90
8715;DHT22;4394;51.208;8.904;2023-08-06T03:08:38;15.60;99.90
8715;DHT22;4394;51.208;8.904;2023-08-06T03:11:26;15.60;99.90
8715;DHT22;4394;51.208;8.904;2023-08-06T03:14:14;15.50;99.90
8715;DHT22;4394;51.208;8.904;2023-08-06T03:17:03;15.50;99.90
8715;DHT22;4394;51.208;8.904;2023-08-06T03:19:52;15.50;99.90
8715;DHT22;4394;51.208;8.904;2023-08-06T03:22:40;15.50;99.90
8715;DHT22;4394;51.208;8.904;2023-08-06T03:25:28;15.50;99.90
8715;DHT22;4394;51.208;8.904;2023-08-06T03:28:17;15.60;99.90
8715;DHT22;4394;51.208;8.904;2023-08-06T03:31:05;15.60;99.90
8715;DHT22;4394;51.208;8.904;2023-08-06T03:33:53;15.60;99.90
8715;DHT22;4394;51.208;8.904;2023-08-06T03:36:42;15.60;99.90
8715;DHT22;4394;51.208;8.904;2023-08-06T03:39:30;15.70;99.90
8715;DHT22;4394;51.208;8.904;2023-08-06T03:42:18;15.70;99.90
8715;DHT22;4394;51.208;8.904;2023-08-06T03:45:07;15.60;99.90
8715;DHT22;4394;51.208;8.904;2023-08-06T03:47:55;15.60;99.90
8715;DHT22;4394;51.208;8.904;2023-08-06T03:50:44;15.60;99.90
8715;DHT22;4394;51.208;8.904;2023-08-06T03:53:33;15.60;99.90
8715;DHT22;4394;51.208;8.904;2023-08-06T03:56:22;15.60;99.90
8715;DHT22;4394;51.208;8.904;2023-08-06T03:59:10;15.70;99.90
8715;DHT22;4394;51.208;8.904;2023-08-06T04:01:58;15.60;99.90
8715;DHT22;4394;51.208;8.904;2023-08-06T04:04:46;15.70;99.90
8715;DHT22;4394;51.208;8.904;2023-08-06T04:07:34;15.70;99.90
8715;DHT22;4394;51.208;8.904;2023-08-06T04:10:24;15.70;99.90
8715;DHT22;4394;51.208;8.904;2023-08-06T04:13:12;15.70;99.90
8715;DHT22;4394;51.208;8.904;2023-08-06T04:16:01;15.70;99.90
8715;DHT22;4394;51.208;8.904;2023-08-06T04:18:49;15.70;99.90
8715;DHT22;4394;51.208;8.904;2023-08-06T04:21:37;15.70;99.90
8715;DHT22;4394;51.208;8.904;2023-08-06T04:24:25;15.70;99.90
8715;DHT22;4394;51.208;8.904;2023-08-06T04:27:16;15.70;99.90
8715;DHT22;4394;51.208;8.904;2023-08-06T04:30:05;15.80;99.90
8715;DHT22;4394;51.208;8.904;2023-08-06T04:32:56;15.80;99.90
8715;DHT22;4394;51.208;8.904;2023-08-06T04:35:45;15.80;99.90
8715;DHT22;4394;51.208;8.904;2023-08-06T04:38:33;15.80;99.90
8715;DHT22;4394;51.208;8.904;2023-08-06T04:41:21;15.80;99.90
8715;DHT22;4394;51.208;8.904;2023-08-06T04:44:10;15.80;99.90
8715;DHT22;4394;51.208;8.904;2023-08-06T04:46:58;15.80;99.90
8715;DHT22;4394;51.208;8.904;2023-08-06T04:49:46;15.80;99.90
8715;DHT22;4394;51.208;8.904;2023-08-06T04:52:34;15.80;99.90
8715;DHT22;4394;51.208;8.904;2023-08-06T04:55:23;15.90;99.90
8715;DHT22;4394;51.208;8.904;2023-08-06T04:58:12;15.90;99.90
8715;DHT22;4394;51.208;8.904;2023-08-06T05:01:01;15.90;99.90
8715;DHT22;4394;51.208;8.904;2023-08-06T05:03:50;15.80;99.90
8715;DHT22;4394;51.208;8.904;2023-08-06T05:06:38;15.90;99.90
8715;DHT22;4394;51.208;8.904;2023-08-06T05:09:27;15.90;99.90
8715;DHT22;4394;51.208;8.904;2023-08-06T05:12:15;15.90;99.90
8715;DHT22;4394;51.208;8.904;2023-08-06T05:15:04;16.00;99.90
8715;DHT22;4394;51.208;8.904;2023-08-06T05:17:53;16.00;99.90
8715;DHT22;4394;51.208;8.904;2023-08-06T05:20:42;16.00;99.90
8715;DHT22;4394;51.208;8.904;2023-08-06T05:23:30;16.00;99.90
8715;DHT22;4394;51.208;8.904;2023-08-06T05:26:18;16.00;99.90
8715;DHT22;4394;51.208;8.904;2023-08-06T05:29:06;16.00;99.90
8715;DHT22;4394;51.208;8.904;2023-08-06T05:31:54;16.00;99.90
8715;DHT22;4394;51.208;8.904;2023-08-06T05:34:44;16.00;99.90
8715;DHT22;4394;51.208;8.904;2023-08-06T05:37:32;16.00;99.90
8715;DHT22;4394;51.208;8.904;2023-08-06T05:40:20;16.00;99.90
8715;DHT22;4394;51.208;8.904;2023-08-06T05:43:08;16.10;99.90
8715;DHT22;4394;51.208;8.904;2023-08-06T05:45:57;16.10;99.90
8715;DHT22;4394;51.208;8.904;2023-08-06T05:48:45;16.10;99.90
8715;DHT22;4394;51.208;8.904;2023-08-06T05:51:35;16.10;99.90
8715;DHT22;4394;51.208;8.904;2023-08-06T05:54:23;16.10;99.90
8715;DHT22;4394;51.208;8.904;2023-08-06T05:57:11;16.10;99.90
8715;DHT22;4394;51.208;8.904;2023-08-06T06:00:00;16.10;99.90
8715;DHT22;4394;51.208;8.904;2023-08-06T06:02:48;16.10;99.90
8715;DHT22;4394;51.208;8.904;2023-08-06T06:05:37;16.10;99.90
8715;DHT22;4394;51.208;8.904;2023-08-06T06:08:27;16.20;99.90
8715;DHT22;4394;51.208;8.904;2023-08-06T06:11:15;16.20;99.90
8715;DHT22;4394;51.208;8.904;2023-08-06T06:14:03;16.20;99.90
8715;DHT22;4394;51.208;8.904;2023-08-06T06:16:51;16.20;99.90
8715;DHT22;4394;51.208;8.904;2023-08-06T06:19:40;16.30;99.90
8715;DHT22;4394;51.208;8.904;2023-08-06T06:22:28;16.30;99.90
8715;DHT22;4394;51.208;8.904;2023-08-06T06:25:17;16.30;99.90
8715;DHT22;4394;51.208;8.904;2023-08-06T06:28:05;16.30;99.90
8715;DHT22;4394;51.208;8.904;2023-08-06T06:30:53;16.30;99.90
8715;DHT22;4394;51.208;8.904;2023-08-06T06:33:48;16.30;99.90
8715;DHT22;4394;51.208;8.904;2023-08-06T06:36:36;16.30;99.90
8715;DHT22;4394;51.208;8.904;2023-08-06T06:39:24;16.30;99.90
8715;DHT22;4394;51.208;8.904;2023-08-06T06:42:13;16.40;99.90
8715;DHT22;4394;51.208;8.904;2023-08-06T06:45:02;16.50;99.90
8715;DHT22;4394;51.208;8.904;2023-08-06T06:47:50;16.50;99.90
8715;DHT22;4394;51.208;8.904;2023-08-06T06:50:38;16.60;99.90
8715;DHT22;4394;51.208;8.904;2023-08-06T06:53:26;16.70;99.90
8715;DHT22;4394;51.208;8.904;2023-08-06T06:56:15;16.80;99.90
8715;DHT22;4394;51.208;8.904;2023-08-06T06:59:04;16.90;99.90
8715;DHT22;4394;51.208;8.904;2023-08-06T07:01:52;17.00;99.90
8715;DHT22;4394;51.208;8.904;2023-08-06T07:04:40;17.10;99.90
8715;DHT22;4394;51.208;8.904;2023-08-06T07:07:29;17.20;99.90
8715;DHT22;4394;51.208;8.904;2023-08-06T07:10:17;17.20;99.90
8715;DHT22;4394;51.208;8.904;2023-08-06T07:13:05;17.30;99.90
8715;DHT22;4394;51.208;8.904;2023-08-06T07:15:55;17.30;99.90
8715;DHT22;4394;51.208;8.904;2023-08-06T07:18:43;17.40;99.90
8715;DHT22;4394;51.208;8.904;2023-08-06T07:21:31;17.50;99.90
8715;DHT22;4394;51.208;8.904;2023-08-06T07:24:20;17.50;99.90
8715;DHT22;4394;51.208;8.904;2023-08-06T07:27:08;17.50;99.90
8715;DHT22;4394;51.208;8.904;2023-08-06T07:29:56;17.70;99.90
8715;DHT22;4394;51.208;8.904;2023-08-06T07:32:46;17.70;99.90
8715;DHT22;4394;51.208;8.904;2023-08-06T07:35:35;17.70;99.90
8715;DHT22;4394;51.208;8.904;2023-08-06T07:38:23;17.60;99.90
8715;DHT22;4394;51.208;8.904;2023-08-06T07:41:11;17.90;99.90
8715;DHT22;4394;51.208;8.904;2023-08-06T07:43:59;17.90;99.90
8715;DHT22;4394;51.208;8.904;2023-08-06T07:46:47;17.80;99.90
8715;DHT22;4394;51.208;8.904;2023-08-06T07:49:37;17.70;99.90
8715;DHT22;4394;51.208;8.904;2023-08-06T07:52:25;17.80;99.90
8715;DHT22;4394;51.208;8.904;2023-08-06T07:55:13;17.70;99.90
8715;DHT22;4394;51.208;8.904;2023-08-06T07:58:02;17.70;99.90
8715;DHT22;4394;51.208;8.904;2023-08-06T08:00:51;17.80;99.90
8715;DHT22;4394;51.208;8.904;2023-08-06T08:03:39;17.80;99.90
8715;DHT22;4394;51.208;8.904;2023-08-06T08:06:28;17.90;99.90
8715;DHT22;4394;51.208;8.904;2023-08-06T08:09:16;17.80;99.90
8715;DHT22;4394;51.208;8.904;2023-08-06T08:12:05;17.90;99.90
8715;DHT22;4394;51.208;8.904;2023-08-06T08:14:53;17.90;99.90
8715;DHT22;4394;51.208;8.904;2023-08-06T08:17:41;17.90;99.90
8715;DHT22;4394;51.208;8.904;2023-08-06T08:20:29;18.00;99.90
8715;DHT22;4394;51.208;8.904;2023-08-06T08:23:21;18.10;99.90
8715;DHT22;4394;51.208;8.904;2023-08-06T08:26:09;18.20;99.90
8715;DHT22;4394;51.208;8.904;2023-08-06T08:28:58;18.40;99.90
8715;DHT22;4394;51.208;8.904;2023-08-06T08:31:46;18.60;99.90
8715;DHT22;4394;51.208;8.904;2023-08-06T08:34:36;19.10;99.90
8715;DHT22;4394;51.208;8.904;2023-08-06T08:37:24;19.10;99.90
8715;DHT22;4394;51.208;8.904;2023-08-06T08:40:14;19.00;99.90
8715;DHT22;4394;51.208;8.904;2023-08-06T08:43:03;19.00;99.90
8715;DHT22;4394;51.208;8.904;2023-08-06T08:45:52;19.20;99.90
8715;DHT22;4394;51.208;8.904;2023-08-06T08:48:42;19.80;99.90
8715;DHT22;4394;51.208;8.904;2023-08-06T08:51:31;19.60;99.90
8715;DHT22;4394;51.208;8.904;2023-08-06T08:54:22;19.60;99.90
8715;DHT22;4394;51.208;8.904;2023-08-06T08:57:12;19.40;99.90
8715;DHT22;4394;51.208;8.904;2023-08-06T09:00:00;19.40;99.90
8715;DHT22;4394;51.208;8.904;2023-08-06T09:02:48;19.30;99.90
8715;DHT22;4394;51.208;8.904;2023-08-06T09:05:43;19.30;99.90
8715;DHT22;4394;51.208;8.904;2023-08-06T09:08:35;19.40;99.90
8715;DHT22;4394;51.208;8.904;2023-08-06T09:11:24;19.50;99.90
8715;DHT22;4394;51.208;8.904;2023-08-06T09:14:15;19.70;99.90
8715;DHT22;4394;51.208;8.904;2023-08-06T09:17:04;19.80;99.90
8715;DHT22;4394;51.208;8.904;2023-08-06T09:19:52;19.90;99.90
8715;DHT22;4394;51.208;8.904;2023-08-06T09:22:41;20.00;99.90
8715;DHT22;4394;51.208;8.904;2023-08-06T09:25:31;20.10;99.90
8715;DHT22;4394;51.208;8.904;2023-08-06T09:28:19;20.10;99.90
8715;DHT22;4394;51.208;8.904;2023-08-06T09:31:08;20.20;99.90
8715;DHT22;4394;51.208;8.904;2023-08-06T09:33:59;20.30;99.90
8715;DHT22;4394;51.208;8.904;2023-08-06T09:36:48;20.40;99.90
8715;DHT22;4394;51.208;8.904;2023-08-06T09:39:39;20.50;99.90
8715;DHT22;4394;51.208;8.904;2023-08-06T09:42:28;20.60;99.90
8715;DHT22;4394;51.208;8.904;2023-08-06T09:45:17;20.70;99.90
8715;DHT22;4394;51.208;8.904;2023-08-06T09:48:07;20.70;99.90
8715;DHT22;4394;51.208;8.904;2023-08-06T09:50:55;21.00;99.90
8715;DHT22;4394;51.208;8.904;2023-08-06T09:53:44;21.10;99.90
8715;DHT22;4394;51.208;8.904;2023-08-06T09:56:33;21.20;99.90
8715;DHT22;4394;51.208;8.904;2023-08-06T09:59:24;21.10;99.90
8715;DHT22;4394;51.208;8.904;2023-08-06T10:02:14;21.10;99.90
8715;DHT22;4394;51.208;8.904;2023-08-06T10:05:04;21.10;99.90
8715;DHT22;4394;51.208;8.904;2023-08-06T10:07:53;21.10;99.90
8715;DHT22;4394;51.208;8.904;2023-08-06T10:10:42;21.10;99.90
8715;DHT22;4394;51.208;8.904;2023-08-06T10:13:33;21.10;99.90
8715;DHT22;4394;51.208;8.904;2023-08-06T10:16:22;21.10;99.90
8715;DHT22;4394;51.208;8.904;2023-08-06T10:19:11;21.20;99.90
8715;DHT22;4394;51.208;8.904;2023-08-06T10:22:12;21.20;99.90
8715;DHT22;4394;51.208;8.904;2023-08-06T10:25:02;21.40;99.90
8715;DHT22;4394;51.208;8.904;2023-08-06T10:27:55;21.60;99.90
8715;DHT22;4394;51.208;8.904;2023-08-06T10:30:44;21.70;99.90
8715;DHT22;4394;51.208;8.904;2023-08-06T10:33:43;21.80;99.90
8715;DHT22;4394;51.208;8.904;2023-08-06T10:36:32;21.90;99.90
8715;DHT22;4394;51.208;8.904;2023-08-06T10:39:21;21.70;99.90
8715;DHT22;4394;51.208;8.904;2023-08-06T10:42:21;21.80;99.90
8715;DHT22;4394;51.208;8.904;2023-08-06T10:45:14;21.90;99.90
8715;DHT22;4394;51.208;8.904;2023-08-06T10:48:03;21.80;99.90
8715;DHT22;4394;51.208;8.904;2023-08-06T10:50:51;22.00;99.90
8715;DHT22;4394;51.208;8.904;2023-08-06T10:53:42;21.70;99.90
8715;DHT22;4394;51.208;8.904;2023-08-06T10:56:39;21.60;99.90
8715;DHT22;4394;51.208;8.904;2023-08-06T10:59:28;21.40;99.90
8715;DHT22;4394;51.208;8.904;2023-08-06T11:02:17;21.30;99.90
8715;DHT22;4394;51.208;8.904;2023-08-06T11:05:07;21.20;99.90
8715;DHT22;4394;51.208;8.904;2023-08-06T11:07:55;21.10;99.90
8715;DHT22;4394;51.208;8.904;2023-08-06T11:10:43;21.00;99.90
8715;DHT22;4394;51.208;8.904;2023-08-06T11:13:50;20.90;99.90
8715;DHT22;4394;51.208;8.904;2023-08-06T11:16:38;20.80;99.90
8715;DHT22;4394;51.208;8.904;2023-08-06T11:19:27;20.70;99.90
8715;DHT22;4394;51.208;8.904;2023-08-06T11:22:15;20.60;99.90
8715;DHT22;4394;51.208;8.904;2023-08-06T11:25:05;20.60;99.90
8715;DHT22;4394;51.208;8.904;2023-08-06T11:27:53;20.60;99.90
8715;DHT22;4394;51.208;8.904;2023-08-06T11:30:42;20.50;99.90
8715;DHT22;4394;51.208;8.904;2023-08-06T11:33:31;20.50;99.90
8715;DHT22;4394;51.208;8.904;2023-08-06T11:36:29;20.50;99.90
8715;DHT22;4394;51.208;8.904;2023-08-06T11:39:17;20.50;99.90
8715;DHT22;4394;51.208;8.904;2023-08-06T11:42:06;20.40;99.90
8715;DHT22;4394;51.208;8.904;2023-08-06T11:44:56;20.40;99.90
8715;DHT22;4394;51.208;8.904;2023-08-06T11:47:51;20.80;99.90
8715;DHT22;4394;51.208;8.904;2023-08-06T11:50:40;20.50;99.90
8715;DHT22;4394;51.208;8.904;2023-08-06T11:53:28;20.30;99.90
8715;DHT22;4394;51.208;8.904;2023-08-06T11:56:17;20.20;99.90
8715;DHT22;4394;51.208;8.904;2023-08-06T11:59:05;20.10;99.90
8715;DHT22;4394;51.208;8.904;2023-08-06T12:01:53;20.00;99.90
8715;DHT22;4394;51.208;8.904;2023-08-06T12:05:04;19.90;99.90
8715;DHT22;4394;51.208;8.904;2023-08-06T12:07:54;19.70;99.90
8715;DHT22;4394;51.208;8.904;2023-08-06T12:10:42;19.40;99.90
8715;DHT22;4394;51.208;8.904;2023-08-06T12:13:30;19.20;99.90
8715;DHT22;4394;51.208;8.904;2023-08-06T12:16:18;19.00;99.90
8715;DHT22;4394;51.208;8.904;2023-08-06T12:19:08;18.80;99.90
8715;DHT22;4394;51.208;8.904;2023-08-06T12:21:58;18.40;99.90
8715;DHT22;4394;51.208;8.904;2023-08-06T12:24:46;17.60;99.90
8715;DHT22;4394;51.208;8.904;2023-08-06T12:27:35;17.00;99.90
8715;DHT22;4394;51.208;8.904;2023-08-06T12:30:23;16.80;99.90
8715;DHT22;4394;51.208;8.904;2023-08-06T12:33:11;17.10;99.90
8715;DHT22;4394;51.208;8.904;2023-08-06T12:35:59;17.00;99.90
8715;DHT22;4394;51.208;8.904;2023-08-06T12:38:48;17.00;99.90
8715;DHT22;4394;51.208;8.904;2023-08-06T12:41:36;17.10;99.90
8715;DHT22;4394;51.208;8.904;2023-08-06T12:44:24;17.40;99.90
8715;DHT22;4394;51.208;8.904;2023-08-06T12:47:12;17.20;99.90
8715;DHT22;4394;51.208;8.904;2023-08-06T12:50:01;17.10;99.90
8715;DHT22;4394;51.208;8.904;2023-08-06T12:52:48;16.90;99.90
8715;DHT22;4394;51.208;8.904;2023-08-06T12:55:38;16.90;99.90
8715;DHT22;4394;51.208;8.904;2023-08-06T12:58:27;16.90;99.90
8715;DHT22;4394;51.208;8.904;2023-08-06T13:01:15;16.90;99.90
8715;DHT22;4394;51.208;8.904;2023-08-06T13:04:04;16.90;99.90
8715;DHT22;4394;51.208;8.904;2023-08-06T13:07:07;16.90;99.90
8715;DHT22;4394;51.208;8.904;2023-08-06T13:09:56;16.90;99.90
8715;DHT22;4394;51.208;8.904;2023-08-06T13:12:45;17.00;99.90
8715;DHT22;4394;51.208;8.904;2023-08-06T13:15:33;16.90;99.90
8715;DHT22;4394;51.208;8.904;2023-08-06T13:18:22;16.80;99.90
8715;DHT22;4394;51.208;8.904;2023-08-06T13:21:10;16.70;99.90
8715;DHT22;4394;51.208;8.904;2023-08-06T13:23:58;16.70;99.90
8715;DHT22;4394;51.208;8.904;2023-08-06T13:26:46;16.70;99.90
8715;DHT22;4394;51.208;8.904;2023-08-06T13:29:36;16.70;99.90
8715;DHT22;4394;51.208;8.904;2023-08-06T13:32:24;16.60;99.90
8715;DHT22;4394;51.208;8.904;2023-08-06T13:35:12;16.70;99.90
8715;DHT22;4394;51.208;8.904;2023-08-06T13:38:00;16.70;99.90
8715;DHT22;4394;51.208;8.904;2023-08-06T13:40:49;16.60;99.90
8715;DHT22;4394;51.208;8.904;2023-08-06T13:43:38;16.70;99.90
8715;DHT22;4394;51.208;8.904;2023-08-06T13:46:28;16.60;99.90
8715;DHT22;4394;51.208;8.904;2023-08-06T13:49:16;16.70;99.90
8715;DHT22;4394;51.208;8.904;2023-08-06T13:52:04;16.70;99.90
8715;DHT22;4394;51.208;8.904;2023-08-06T13:55:08;16.70;99.90
8715;DHT22;4394;51.208;8.904;2023-08-06T13:57:56;16.80;99.90
8715;DHT22;4394;51.208;8.904;2023-08-06T14:00:44;16.90;99.90
8715;DHT22;4394;51.208;8.904;2023-08-06T14:03:34;17.00;99.90
8715;DHT22;4394;51.208;8.904;2023-08-06T14:06:22;17.00;99.90
8715;DHT22;4394;51.208;8.904;2023-08-06T14:09:10;17.20;99.90
8715;DHT22;4394;51.208;8.904;2023-08-06T14:12:01;17.20;99.90
8715;DHT22;4394;51.208;8.904;2023-08-06T14:14:49;17.30;99.90
8715;DHT22;4394;51.208;8.904;2023-08-06T14:17:37;17.40;99.90
8715;DHT22;4394;51.208;8.904;2023-08-06T14:20:28;17.50;99.90
8715;DHT22;4394;51.208;8.904;2023-08-06T14:23:16;17.60;99.90
8715;DHT22;4394;51.208;8.904;2023-08-06T14:26:04;17.70;99.90
8715;DHT22;4394;51.208;8.904;2023-08-06T14:28:52;17.70;99.90
8715;DHT22;4394;51.208;8.904;2023-08-06T14:31:41;17.70;99.90
8715;DHT22;4394;51.208;8.904;2023-08-06T14:34:29;17.70;99.90
8715;DHT22;4394;51.208;8.904;2023-08-06T14:37:19;17.80;99.90
8715;DHT22;4394;51.208;8.904;2023-08-06T14:40:08;17.80;99.90
8715;DHT22;4394;51.208;8.904;2023-08-06T14:42:56;17.80;99.90
8715;DHT22;4394;51.208;8.904;2023-08-06T14:45:45;17.90;99.90
8715;DHT22;4394;51.208;8.904;2023-08-06T14:48:33;17.90;99.90
8715;DHT22;4394;51.208;8.904;2023-08-06T14:51:22;18.00;99.90
8715;DHT22;4394;51.208;8.904;2023-08-06T14:54:11;18.30;99.90
8715;DHT22;4394;51.208;8.904;2023-08-06T14:56:59;18.20;99.90
8715;DHT22;4394;51.208;8.904;2023-08-06T14:59:48;18.10;99.90
8715;DHT22;4394;51.208;8.904;2023-08-06T15:02:35;18.00;99.90
8715;DHT22;4394;51.208;8.904;2023-08-06T15:05:24;17.90;99.90
8715;DHT22;4394;51.208;8.904;2023-08-06T15:08:12;17.90;99.90
8715;DHT22;4394;51.208;8.904;2023-08-06T15:11:02;17.80;99.90
8715;DHT22;4394;51.208;8.904;2023-08-06T15:13:50;17.80;99.90
8715;DHT22;4394;51.208;8.904;2023-08-06T15:16:38;17.70;99.90
8715;DHT22;4394;51.208;8.904;2023-08-06T15:19:26;17.60;99.90
8715;DHT22;4394;51.208;8.904;2023-08-06T15:22:14;17.50;99.90
8715;DHT22;4394;51.208;8.904;2023-08-06T15:25:03;17.50;99.90
8715;DHT22;4394;51.208;8.904;2023-08-06T15:27:53;17.40;99.90
8715;DHT22;4394;51.208;8.904;2023-08-06T15:30:41;17.40;99.90
8715;DHT22;4394;51.208;8.904;2023-08-06T15:33:36;17.30;99.90
8715;DHT22;4394;51.208;8.904;2023-08-06T15:36:24;17.20;99.90
8715;DHT22;4394;51.208;8.904;2023-08-06T15:39:12;17.10;99.90
8715;DHT22;4394;51.208;8.904;2023-08-06T15:42:00;17.00;99.90
8715;DHT22;4394;51.208;8.904;2023-08-06T15:44:50;17.00;99.90
8715;DHT22;4394;51.208;8.904;2023-08-06T15:47:38;16.90;99.90
8715;DHT22;4394;51.208;8.904;2023-08-06T15:50:27;16.80;99.90
8715;DHT22;4394;51.208;8.904;2023-08-06T15:53:15;16.70;99.90
8715;DHT22;4394;51.208;8.904;2023-08-06T15:56:03;16.70;99.90
8715;DHT22;4394;51.208;8.904;2023-08-06T15:58:52;17.10;99.90
8715;DHT22;4394;51.208;8.904;2023-08-06T16:01:42;16.90;99.90
8715;DHT22;4394;51.208;8.904;2023-08-06T16:04:30;16.70;99.90
8715;DHT22;4394;51.208;8.904;2023-08-06T16:07:19;16.50;99.90
8715;DHT22;4394;51.208;8.904;2023-08-06T16:10:10;16.50;99.90
8715;DHT22;4394;51.208;8.904;2023-08-06T16:12:58;16.40;99.90
8715;DHT22;4394;51.208;8.904;2023-08-06T16:15:46;16.40;99.90
8715;DHT22;4394;51.208;8.904;2023-08-06T16:18:35;16.40;99.90
8715;DHT22;4394;51.208;8.904;2023-08-06T16:21:24;16.40;99.90
8715;DHT22;4394;51.208;8.904;2023-08-06T16:24:12;16.40;99.90
8715;DHT22;4394;51.208;8.904;2023-08-06T16:27:02;16.30;99.90
8715;DHT22;4394;51.208;8.904;2023-08-06T16:29:50;16.30;99.90
8715;DHT22;4394;51.208;8.904;2023-08-06T16:32:38;16.30;99.90
8715;DHT22;4394;51.208;8.904;2023-08-06T16:35:28;16.20;99.90
8715;DHT22;4394;51.208;8.904;2023-08-06T16:38:16;16.00;99.90
8715;DHT22;4394;51.208;8.904;2023-08-06T16:41:06;15.90;99.90
8715;DHT22;4394;51.208;8.904;2023-08-06T16:43:54;15.90;99.90
8715;DHT22;4394;51.208;8.904;2023-08-06T16:46:42;15.90;99.90
8715;DHT22;4394;51.208;8.904;2023-08-06T16:49:30;15.90;99.90
8715;DHT22;4394;51.208;8.904;2023-08-06T16:52:20;16.20;99.90
8715;DHT22;4394;51.208;8.904;2023-08-06T16:55:08;16.00;99.90
8715;DHT22;4394;51.208;8.904;2023-08-06T16:57:56;15.80;99.90
8715;DHT22;4394;51.208;8.904;2023-08-06T17:00:44;15.80;99.90
8715;DHT22;4394;51.208;8.904;2023-08-06T17:03:33;15.80;99.90
8715;DHT22;4394;51.208;8.904;2023-08-06T17:06:21;15.70;99.90
8715;DHT22;4394;51.208;8.904;2023-08-06T17:09:11;15.60;99.90
8715;DHT22;4394;51.208;8.904;2023-08-06T17:11:59;15.60;99.90
8715;DHT22;4394;51.208;8.904;2023-08-06T17:14:47;15.60;99.90
8715;DHT22;4394;51.208;8.904;2023-08-06T17:17:35;15.60;99.90
8715;DHT22;4394;51.208;8.904;2023-08-06T17:20:23;15.50;99.90
8715;DHT22;4394;51.208;8.904;2023-08-06T17:23:11;15.40;99.90
8715;DHT22;4394;51.208;8.904;2023-08-06T17:26:01;15.30;99.90
8715;DHT22;4394;51.208;8.904;2023-08-06T17:28:49;15.30;99.90
8715;DHT22;4394;51.208;8.904;2023-08-06T17:31:37;15.30;99.90
8715;DHT22;4394;51.208;8.904;2023-08-06T17:34:25;15.10;99.90
8715;DHT22;4394;51.208;8.904;2023-08-06T17:37:14;15.10;99.90
8715;DHT22;4394;51.208;8.904;2023-08-06T17:40:03;15.00;99.90
8715;DHT22;4394;51.208;8.904;2023-08-06T17:42:53;15.10;99.90
8715;DHT22;4394;51.208;8.904;2023-08-06T17:45:41;15.10;99.90
8715;DHT22;4394;51.208;8.904;2023-08-06T17:48:29;15.10;99.90
8715;DHT22;4394;51.208;8.904;2023-08-06T17:51:18;15.10;99.90
8715;DHT22;4394;51.208;8.904;2023-08-06T17:54:06;15.10;99.90
8715;DHT22;4394;51.208;8.904;2023-08-06T17:56:54;15.20;99.90
8715;DHT22;4394;51.208;8.904;2023-08-06T17:59:46;15.20;99.90
8715;DHT22;4394;51.208;8.904;2023-08-06T18:02:35;15.10;99.90
8715;DHT22;4394;51.208;8.904;2023-08-06T18:05:23;15.10;99.90
8715;DHT22;4394;51.208;8.904;2023-08-06T18:08:12;15.10;99.90
8715;DHT22;4394;51.208;8.904;2023-08-06T18:11:00;15.10;99.90
8715;DHT22;4394;51.208;8.904;2023-08-06T18:13:48;15.40;99.90
8715;DHT22;4394;51.208;8.904;2023-08-06T18:16:37;15.30;99.90
8715;DHT22;4394;51.208;8.904;2023-08-06T18:19:26;15.20;99.90
8715;DHT22;4394;51.208;8.904;2023-08-06T18:22:14;15.20;99.90
8715;DHT22;4394;51.208;8.904;2023-08-06T18:25:02;15.10;99.90